Time;durP1;ratioP1;P1;durP2;ratioP2;P2;SDS_P1;SDS_P2;PMS_P1;PMS_P2;Temp;Humidity;BMP_temperature;BMP_pressure;BME280_temperature;BME280_humidity;BME280_pressure;Samples;Min_cycle;Max_cycle;Signal;HPM_P1;HPM_P2
2022/01/07 00:00:13;;;;;;;11.13;4.32;;;;;;;2.22;100.00;101386.31;5069999;28;20098;-52
2022/01/07 00:02:42;;;;;;;10.05;4.03;;;;;;;2.20;100.00;101382.00;5071704;28;20516;-51
2022/01/07 00:05:11;;;;;;;15.15;4.63;;;;;;;2.19;99.66;101369.91;5069419;28;20127;-54
2022/01/07 00:07:39;;;;;;;11.82;4.43;;;;;;;2.20;100.00;101361.25;5068336;28;20060;-52
2022/01/07 00:10:11;;;;;;;13.23;4.45;;;;;;;2.21;100.00;101367.31;5073897;28;20429;-53
2022/01/07 00:12:39;;;;;;;12.80;4.70;;;;;;;2.25;100.00;101365.47;5073538;28;20499;-50
2022/01/07 00:15:08;;;;;;;18.85;4.40;;;;;;;2.20;99.02;101366.44;5084391;28;20087;-52
2022/01/07 00:17:36;;;;;;;13.55;4.30;;;;;;;2.18;100.00;101354.38;5088211;28;20056;-51
2022/01/07 00:20:05;;;;;;;8.65;4.20;;;;;;;2.24;99.12;101351.66;5091891;28;20051;-54
2022/01/07 00:22:33;;;;;;;16.05;4.80;;;;;;;2.22;99.73;101352.56;5093250;28;20482;-52
2022/01/07 00:25:01;;;;;;;11.63;5.32;;;;;;;2.22;99.33;101348.22;5092216;28;20051;-54
2022/01/07 00:27:31;;;;;;;10.90;4.25;;;;;;;2.23;99.66;101349.94;5088069;28;20055;-54
2022/01/07 00:29:59;;;;;;;14.20;4.50;;;;;;;2.25;99.71;101348.19;5089408;28;20057;-50
2022/01/07 00:32:27;;;;;;;14.95;4.57;;;;;;;2.27;99.59;101348.13;5091255;28;20056;-52
2022/01/07 00:34:55;;;;;;;10.68;4.68;;;;;;;2.30;98.41;101337.69;5091252;28;20047;-53
2022/01/07 00:37:23;;;;;;;14.30;5.05;;;;;;;2.29;100.00;101329.06;5093117;28;20036;-52
2022/01/07 00:39:52;;;;;;;12.60;4.30;;;;;;;2.33;99.67;101328.09;5093406;28;20068;-52
2022/01/07 00:42:20;;;;;;;12.30;4.65;;;;;;;2.28;100.00;101321.31;5093068;28;20048;-52
2022/01/07 00:44:50;;;;;;;11.23;4.53;;;;;;;2.27;100.00;101317.84;5088877;28;20055;-52
2022/01/07 00:47:18;;;;;;;12.65;4.75;;;;;;;2.24;100.00;101315.31;5086597;28;20055;-52
2022/01/07 00:49:46;;;;;;;16.70;4.45;;;;;;;2.21;100.00;101315.41;5074287;28;20082;-53
2022/01/07 00:52:15;;;;;;;10.60;4.15;;;;;;;2.23;100.00;101307.56;5093142;28;20432;-54
2022/01/07 00:54:43;;;;;;;9.98;4.30;;;;;;;2.22;100.00;101311.03;5092822;28;20051;-56
2022/01/07 00:57:11;;;;;;;11.73;4.00;;;;;;;2.13;100.00;101309.53;5091672;28;20043;-53
2022/01/07 00:59:39;;;;;;;10.90;4.55;;;;;;;2.15;100.00;101315.53;5092203;28;20413;-55
2022/01/07 01:02:10;;;;;;;14.27;4.55;;;;;;;2.09;100.00;101311.31;5092808;28;20127;-54
2022/01/07 01:04:43;;;;;;;15.25;5.03;;;;;;;2.16;100.00;101302.50;5091111;28;20048;-52
2022/01/07 01:07:11;;;;;;;11.30;4.82;;;;;;;2.15;100.00;101300.78;5085508;28;20043;-53
2022/01/07 01:09:39;;;;;;;15.15;4.90;;;;;;;2.11;100.00;101298.31;5089983;28;20098;-54
2022/01/07 01:12:09;;;;;;;12.43;5.15;;;;;;;2.03;100.00;101285.50;5093025;28;20487;-53
2022/01/07 01:14:38;;;;;;;14.15;5.30;;;;;;;1.96;100.00;101291.72;5091486;28;20042;-54
2022/01/07 01:17:07;;;;;;;10.65;4.68;;;;;;;1.94;100.00;101291.75;5090244;28;20052;-55
2022/01/07 01:19:37;;;;;;;14.43;4.85;;;;;;;1.95;100.00;101279.63;5087194;28;20528;-54
2022/01/07 01:22:06;;;;;;;13.00;4.90;;;;;;;1.95;100.00;101285.69;5089429;28;20379;-55
2022/01/07 01:24:34;;;;;;;16.45;5.32;;;;;;;1.86;100.00;101278.94;5074066;28;20051;-56
2022/01/07 01:27:02;;;;;;;10.68;4.70;;;;;;;1.83;100.00;101279.03;5091169;28;20397;-54
2022/01/07 01:29:32;;;;;;;14.15;5.28;;;;;;;1.82;100.00;101279.06;5091680;28;20075;-55
2022/01/07 01:32:00;;;;;;;11.70;5.13;;;;;;;1.77;100.00;101267.94;5091176;28;20563;-54
2022/01/07 01:34:28;;;;;;;14.02;5.10;;;;;;;1.77;100.00;101267.94;5092189;28;20116;-54
2022/01/07 01:36:57;;;;;;;13.13;5.47;;;;;;;1.66;100.00;101265.56;5092580;28;20052;-54
2022/01/07 01:39:25;;;;;;;11.45;5.38;;;;;;;1.67;100.00;101256.91;5092370;28;20044;-54
2022/01/07 01:41:54;;;;;;;14.10;6.05;;;;;;;1.78;100.00;101262.69;5092440;28;20541;-56
2022/01/07 01:44:23;;;;;;;10.13;4.97;;;;;;;1.74;100.00;101249.84;5073832;28;20040;-53
2022/01/07 01:46:52;;;;;;;15.40;5.88;;;;;;;1.66;100.00;101244.81;5092314;28;20529;-53
2022/01/07 01:49:20;;;;;;;13.32;5.82;;;;;;;1.63;100.00;101242.28;5092064;28;20043;-53
2022/01/07 01:51:49;;;;;;;13.40;5.40;;;;;;;1.67;100.00;101229.22;5092140;28;20051;-54
2022/01/07 01:54:27;;;;;;;14.68;5.68;;;;;;;1.65;100.00;101233.59;5092316;28;20036;-52
2022/01/07 01:57:04;;;;;;;18.30;6.85;;;;;;;1.54;100.00;101237.28;5072730;28;20501;-54
2022/01/07 01:59:39;;;;;;;12.60;5.60;;;;;;;1.56;100.00;101222.56;5051583;28;20057;-56
2022/01/07 02:02:08;;;;;;;14.10;5.97;;;;;;;1.56;100.00;101220.81;5047535;28;20081;-53
2022/01/07 02:04:38;;;;;;;19.50;6.20;;;;;;;1.54;100.00;101209.66;5048935;28;20482;-55
2022/01/07 02:07:08;;;;;;;12.48;5.80;;;;;;;1.55;100.00;101188.00;5051606;28;20048;-52
2022/01/07 02:09:38;;;;;;;12.05;5.72;;;;;;;1.62;100.00;101192.19;5051574;28;20048;-56
2022/01/07 02:12:09;;;;;;;14.48;6.28;;;;;;;1.61;100.00;101187.88;5051521;28;20148;-55
2022/01/07 02:14:37;;;;;;;12.15;5.55;;;;;;;1.61;100.00;101184.41;5046235;28;20056;-55
2022/01/07 02:17:07;;;;;;;19.55;5.25;;;;;;;1.71;100.00;101190.28;5046113;28;20480;-54
2022/01/07 02:19:37;;;;;;;11.73;5.43;;;;;;;1.73;100.00;101185.88;5049854;28;20399;-55
2022/01/07 02:22:06;;;;;;;13.48;5.68;;;;;;;1.74;100.00;101172.88;5047099;28;20053;-55
2022/01/07 02:24:37;;;;;;;16.30;5.70;;;;;;;1.73;100.00;101178.94;5049818;28;20559;-53
2022/01/07 02:27:06;;;;;;;15.10;5.85;;;;;;;1.66;100.00;101177.41;5051531;28;20442;-55
2022/01/07 02:29:36;;;;;;;11.88;5.35;;;;;;;1.68;100.00;101170.44;5050556;28;20049;-52
2022/01/07 02:32:05;;;;;;;16.25;6.32;;;;;;;1.70;100.00;101176.44;5047192;28;20056;-53
2022/01/07 02:34:33;;;;;;;14.15;4.82;;;;;;;1.76;100.00;101176.31;5048759;28;20132;-52
2022/01/07 02:37:03;;;;;;;11.85;5.15;;;;;;;1.73;100.00;101167.72;5051480;28;20042;-54
2022/01/07 02:39:31;;;;;;;14.80;5.30;;;;;;;1.74;100.00;101167.69;5051333;28;20072;-55
2022/01/07 02:41:59;;;;;;;14.55;5.60;;;;;;;1.75;100.00;101168.56;5047650;28;20060;-56
2022/01/07 02:44:28;;;;;;;14.50;5.25;;;;;;;1.77;100.00;101167.66;5049251;28;20037;-54
2022/01/07 02:46:56;;;;;;;13.45;5.32;;;;;;;1.81;100.00;101158.03;5055121;28;20045;-55
2022/01/07 02:49:24;;;;;;;10.52;4.35;;;;;;;1.82;100.00;101158.00;5055002;28;20102;-52
2022/01/07 02:51:52;;;;;;;12.57;5.20;;;;;;;1.83;100.00;101145.91;5051370;28;20053;-55
2022/01/07 02:54:22;;;;;;;15.35;5.28;;;;;;;1.85;100.00;101155.34;5050921;28;20047;-55
2022/01/07 02:56:50;;;;;;;14.93;5.15;;;;;;;1.80;100.00;101152.00;5053407;28;20049;-55
2022/01/07 02:59:18;;;;;;;10.27;4.97;;;;;;;1.83;100.00;101141.53;5078809;28;20056;-52
2022/01/07 03:01:47;;;;;;;9.35;4.38;;;;;;;1.88;100.00;101145.78;5092719;28;20097;-53
2022/01/07 03:04:15;;;;;;;12.85;4.10;;;;;;;1.90;100.00;101139.66;5094939;28;20119;-53
2022/01/07 03:06:44;;;;;;;13.70;4.70;;;;;;;1.86;100.00;101135.44;5094828;28;20047;-52
2022/01/07 03:09:12;;;;;;;8.02;4.10;;;;;;;1.85;100.00;101137.19;5094945;28;20052;-54
2022/01/07 03:11:42;;;;;;;14.73;4.13;;;;;;;1.84;100.00;101132.00;5095108;28;20130;-55
2022/01/07 03:14:10;;;;;;;10.85;3.90;;;;;;;1.88;100.00;101130.22;5095013;28;20048;-55
2022/01/07 03:16:39;;;;;;;10.43;4.25;;;;;;;1.84;100.00;101122.50;5094757;28;20044;-56
2022/01/07 03:19:07;;;;;;;11.68;4.60;;;;;;;1.89;100.00;101121.53;5094679;28;20051;-55
2022/01/07 03:21:35;;;;;;;10.07;4.18;;;;;;;1.89;100.00;101116.34;5094368;28;20053;-56
2022/01/07 03:24:04;;;;;;;12.77;4.85;;;;;;;1.83;100.00;101117.38;5094683;28;20079;-55
2022/01/07 03:26:32;;;;;;;9.15;3.72;;;;;;;1.86;100.00;101101.72;5094962;28;20498;-56
2022/01/07 03:29:02;;;;;;;13.43;4.65;;;;;;;1.83;100.00;101104.41;5094489;28;20048;-56
2022/01/07 03:31:30;;;;;;;11.82;3.60;;;;;;;1.83;100.00;101101.81;5093745;28;20102;-56
2022/01/07 03:33:58;;;;;;;13.00;4.50;;;;;;;1.84;100.00;101091.38;5094212;28;20048;-56
2022/01/07 03:36:26;;;;;;;15.45;4.20;;;;;;;1.82;100.00;101089.72;5094094;28;20044;-55
2022/01/07 03:38:54;;;;;;;11.52;4.07;;;;;;;1.86;100.00;101081.81;5094281;28;20044;-56
2022/01/07 03:41:22;;;;;;;8.60;4.47;;;;;;;1.86;100.00;101084.41;5076117;28;20539;-54
2022/01/07 03:43:50;;;;;;;15.27;4.55;;;;;;;1.85;100.00;101084.44;5094177;28;20040;-55
2022/01/07 03:46:20;;;;;;;13.45;3.88;;;;;;;1.90;100.00;101079.16;5094242;28;20044;-55
2022/01/07 03:48:49;;;;;;;11.75;4.15;;;;;;;1.89;100.00;101082.63;5093870;28;20040;-56
2022/01/07 03:51:17;;;;;;;10.48;4.45;;;;;;;1.87;100.00;101082.69;5093493;28;20079;-53
2022/01/07 03:53:45;;;;;;;9.98;4.03;;;;;;;1.90;100.00;101076.56;5093746;28;20494;-52
2022/01/07 03:56:17;;;;;;;9.48;4.10;;;;;;;1.84;100.00;101075.81;5092888;28;20058;-54
2022/01/07 03:58:46;;;;;;;7.97;3.80;;;;;;;1.89;100.00;101070.50;5093256;28;20048;-55
2022/01/07 04:01:14;;;;;;;12.52;4.28;;;;;;;1.84;100.00;101070.63;5094088;28;20052;-55
2022/01/07 04:03:44;;;;;;;10.30;4.13;;;;;;;1.81;100.00;101065.53;5093874;28;20139;-56
2022/01/07 04:06:15;;;;;;;11.02;4.10;;;;;;;1.82;100.00;101064.63;5093772;28;20059;-54
2022/01/07 04:08:43;;;;;;;11.15;4.38;;;;;;;1.88;100.00;101063.59;5075536;28;20040;-56
2022/01/07 04:11:11;;;;;;;9.95;4.00;;;;;;;1.76;100.00;101058.72;5075671;28;20072;-55
2022/01/07 04:13:39;;;;;;;9.32;4.35;;;;;;;1.83;100.00;101055.97;5093578;28;20048;-56
2022/01/07 04:16:07;;;;;;;10.95;3.80;;;;;;;1.84;100.00;101062.84;5093744;28;20044;-56
2022/01/07 04:18:35;;;;;;;12.77;4.00;;;;;;;1.88;100.00;101066.19;5093431;28;20457;-55
2022/01/07 04:21:05;;;;;;;8.77;4.00;;;;;;;1.77;100.00;101050.94;5093381;28;20101;-54
2022/01/07 04:23:33;;;;;;;10.15;4.30;;;;;;;1.72;100.00;101063.16;5093491;28;20052;-56
2022/01/07 04:26:01;;;;;;;9.02;3.95;;;;;;;1.75;100.00;101060.47;5075169;28;20059;-54
2022/01/07 04:28:29;;;;;;;12.23;4.20;;;;;;;1.73;100.00;101058.81;5093482;28;20500;-54
2022/01/07 04:30:57;;;;;;;10.70;4.68;;;;;;;1.79;100.00;101054.34;5093050;28;20067;-54
2022/01/07 04:33:28;;;;;;;9.23;4.20;;;;;;;1.84;100.00;101056.78;5093293;28;20036;-56
2022/01/07 04:35:57;;;;;;;12.82;4.72;;;;;;;1.72;100.00;101052.78;5093390;28;20040;-53
2022/01/07 04:38:28;;;;;;;10.05;4.57;;;;;;;1.71;100.00;101055.44;5093071;28;20109;-53
2022/01/07 04:40:56;;;;;;;8.95;4.35;;;;;;;1.68;100.00;101054.59;5093251;28;20498;-53
2022/01/07 04:43:24;;;;;;;9.70;4.53;;;;;;;1.78;100.00;101051.78;5075099;28;20074;-55
2022/01/07 04:45:52;;;;;;;8.95;4.60;;;;;;;1.74;100.00;101052.75;5092948;28;20123;-53
2022/01/07 04:48:20;;;;;;;9.48;4.38;;;;;;;1.64;100.00;101058.16;5093128;28;20043;-53
2022/01/07 04:50:48;;;;;;;12.27;4.63;;;;;;;1.59;100.00;101056.56;5093029;28;20044;-55
2022/01/07 04:53:16;;;;;;;8.77;4.60;;;;;;;1.63;100.00;101053.84;5093337;28;20097;-55
2022/01/07 04:55:46;;;;;;;10.38;5.07;;;;;;;1.62;100.00;101046.97;5092789;28;20041;-55
2022/01/07 04:58:15;;;;;;;10.77;4.70;;;;;;;1.66;100.00;101047.75;5092995;28;20083;-55
2022/01/07 05:00:45;;;;;;;11.93;4.88;;;;;;;1.62;100.00;101046.13;5092695;28;20059;-55
2022/01/07 05:03:13;;;;;;;8.20;4.30;;;;;;;1.72;100.00;101036.34;5092861;28;20047;-55
2022/01/07 05:05:45;;;;;;;13.07;5.20;;;;;;;1.62;100.00;101028.84;5092600;28;20607;-55
2022/01/07 05:08:15;;;;;;;14.52;5.18;;;;;;;1.62;100.00;101022.78;5092652;28;20048;-55
2022/01/07 05:10:44;;;;;;;9.40;4.15;;;;;;;1.69;100.00;101026.91;5092779;28;20051;-56
2022/01/07 05:13:13;;;;;;;9.32;4.70;;;;;;;1.73;100.00;101031.13;5092663;28;20080;-55
2022/01/07 05:15:41;;;;;;;14.57;5.65;;;;;;;1.68;100.00;101020.88;5092543;28;20044;-53
2022/01/07 05:18:10;;;;;;;11.43;5.10;;;;;;;1.67;100.00;101023.53;5091993;28;20056;-55
2022/01/07 05:20:38;;;;;;;9.57;5.18;;;;;;;1.75;100.00;101019.00;5091985;28;20044;-56
2022/01/07 05:23:06;;;;;;;12.00;5.75;;;;;;;1.79;100.00;101012.84;5092389;28;20474;-56
2022/01/07 05:25:35;;;;;;;10.55;5.55;;;;;;;1.78;100.00;101018.91;5092229;28;20066;-55
2022/01/07 05:28:05;;;;;;;8.88;4.90;;;;;;;1.85;100.00;101015.28;5092435;28;20549;-54
2022/01/07 05:30:35;;;;;;;11.02;6.03;;;;;;;1.87;100.00;101010.06;5092247;28;20056;-55
2022/01/07 05:33:03;;;;;;;9.15;4.85;;;;;;;1.89;100.00;101007.41;5091897;28;20452;-55
2022/01/07 05:35:31;;;;;;;9.45;5.22;;;;;;;1.86;100.00;100997.97;5073785;28;20052;-55
2022/01/07 05:37:59;;;;;;;12.20;5.30;;;;;;;1.88;100.00;101000.50;5092041;28;20074;-55
2022/01/07 05:40:27;;;;;;;8.90;5.55;;;;;;;1.93;100.00;100999.50;5092126;28;20055;-55
2022/01/07 05:42:55;;;;;;;9.57;5.28;;;;;;;1.95;100.00;100986.47;5092168;28;20051;-55
2022/01/07 05:45:23;;;;;;;10.70;5.78;;;;;;;1.98;100.00;100984.66;5092425;28;20055;-54
2022/01/07 05:47:53;;;;;;;9.57;5.70;;;;;;;2.01;100.00;100981.16;5092293;28;20040;-55
2022/01/07 05:50:22;;;;;;;11.63;5.70;;;;;;;2.05;100.00;100981.91;5092136;28;20052;-56
2022/01/07 05:52:50;;;;;;;12.55;6.32;;;;;;;2.02;100.00;100972.47;5092087;28;20044;-55
2022/01/07 05:55:18;;;;;;;11.88;5.80;;;;;;;2.05;100.00;100982.75;5073881;28;20056;-55
2022/01/07 05:57:46;;;;;;;10.38;5.32;;;;;;;2.11;100.00;100977.38;5091648;28;20048;-54
2022/01/07 06:00:14;;;;;;;11.43;5.97;;;;;;;2.13;100.00;100980.81;5091856;28;20050;-57
2022/01/07 06:02:42;;;;;;;10.30;5.72;;;;;;;2.18;100.00;100978.94;5091757;28;20390;-56
2022/01/07 06:05:12;;;;;;;9.63;5.53;;;;;;;2.18;100.00;100978.06;5091939;28;20040;-56
2022/01/07 06:07:40;;;;;;;12.23;5.43;;;;;;;2.22;100.00;100982.28;5091738;28;20048;-56
2022/01/07 06:10:09;;;;;;;9.70;5.63;;;;;;;2.26;100.00;100986.47;5091237;28;20446;-56
2022/01/07 06:12:38;;;;;;;11.05;6.60;;;;;;;2.22;100.00;100984.03;5088685;28;20075;-55
2022/01/07 06:15:07;;;;;;;13.48;5.93;;;;;;;2.30;100.00;100979.47;5091903;28;20530;-56
2022/01/07 06:17:36;;;;;;;12.32;6.50;;;;;;;2.29;100.00;100975.16;5091788;28;20056;-56
2022/01/07 06:20:04;;;;;;;11.23;6.45;;;;;;;2.34;100.00;100975.91;5094851;28;20040;-56
2022/01/07 06:22:35;;;;;;;10.32;6.28;;;;;;;2.33;100.00;100972.47;5094805;28;20048;-56
2022/01/07 06:25:04;;;;;;;14.77;6.60;;;;;;;2.34;100.00;100966.34;5095653;28;20044;-56
2022/01/07 06:27:32;;;;;;;11.63;6.97;;;;;;;2.34;100.00;100979.31;5095786;28;20047;-55
2022/01/07 06:30:01;;;;;;;13.63;7.10;;;;;;;2.44;100.00;100984.25;5095578;28;20036;-57
2022/01/07 06:32:29;;;;;;;11.27;6.30;;;;;;;2.43;100.00;100980.00;5094252;28;20105;-56
2022/01/07 06:34:57;;;;;;;14.60;7.45;;;;;;;2.45;100.00;100980.78;5094014;28;20052;-57
2022/01/07 06:37:25;;;;;;;13.05;7.25;;;;;;;2.48;100.00;100981.56;5095659;28;20048;-56
2022/01/07 06:39:55;;;;;;;12.43;6.97;;;;;;;2.52;100.00;100977.97;5095380;28;20040;-56
2022/01/07 06:42:27;;;;;;;10.32;6.65;;;;;;;2.56;100.00;100977.88;5095114;28;20125;-56
2022/01/07 06:44:55;;;;;;;12.02;7.60;;;;;;;2.57;100.00;100980.41;5095674;28;20079;-57
2022/01/07 06:47:24;;;;;;;11.45;6.70;;;;;;;2.56;100.00;100978.72;5093464;28;20043;-56
2022/01/07 06:49:53;;;;;;;10.07;6.47;;;;;;;2.60;100.00;100985.50;5095309;28;20072;-57
2022/01/07 06:52:21;;;;;;;15.43;7.80;;;;;;;2.65;100.00;100983.63;5095393;28;20044;-57
2022/01/07 06:54:49;;;;;;;14.15;7.75;;;;;;;2.63;100.00;100981.97;5093426;28;20062;-54
2022/01/07 06:57:18;;;;;;;14.40;7.97;;;;;;;2.69;100.00;100992.19;5094127;28;20039;-54
2022/01/07 06:59:47;;;;;;;12.60;7.65;;;;;;;2.66;100.00;100990.53;5095128;28;20105;-52
2022/01/07 07:02:15;;;;;;;14.35;8.40;;;;;;;2.71;100.00;100987.78;5094215;28;20547;-54
2022/01/07 07:04:44;;;;;;;13.50;8.05;;;;;;;2.80;100.00;100992.72;5093602;28;20048;-56
2022/01/07 07:07:12;;;;;;;15.98;8.15;;;;;;;2.79;100.00;100996.19;5092007;28;20147;-55
2022/01/07 07:09:40;;;;;;;16.10;9.30;;;;;;;2.76;100.00;100980.72;5089744;28;20491;-55
2022/01/07 07:12:11;;;;;;;13.55;8.65;;;;;;;2.78;100.00;100991.94;5092905;28;20509;-55
2022/01/07 07:14:41;;;;;;;17.27;8.30;;;;;;;2.83;100.00;100981.38;5093569;28;20044;-53
2022/01/07 07:17:11;;;;;;;15.15;8.27;;;;;;;2.86;100.00;100982.16;5093346;28;20105;-52
2022/01/07 07:19:39;;;;;;;18.15;8.85;;;;;;;2.89;100.00;100983.81;5092501;28;20071;-56
2022/01/07 07:22:08;;;;;;;16.63;8.85;;;;;;;2.92;100.00;100975.03;5094928;28;20101;-53
2022/01/07 07:24:36;;;;;;;17.80;8.85;;;;;;;2.91;100.00;100983.75;5094704;28;20089;-55
2022/01/07 07:27:05;;;;;;;18.42;9.43;;;;;;;2.91;100.00;100991.56;5091493;28;20040;-55
2022/01/07 07:29:33;;;;;;;14.57;9.30;;;;;;;2.92;100.00;100988.03;5087988;28;20136;-54
2022/01/07 07:32:07;;;;;;;15.82;8.52;;;;;;;2.96;100.00;100981.84;5092691;28;20048;-54
2022/01/07 07:37:26;;;;;;;19.48;9.95;;;;;;;2.97;100.00;100979.22;5068948;28;20064;-52
2022/01/07 07:39:55;;;;;;;16.30;9.15;;;;;;;2.95;100.00;100975.81;5090188;28;20131;-53
2022/01/07 07:42:23;;;;;;;18.90;9.50;;;;;;;3.01;100.00;100982.56;5090067;28;20048;-54
2022/01/07 07:44:51;;;;;;;18.48;9.73;;;;;;;3.04;100.00;100979.84;5094332;28;20528;-54
2022/01/07 07:47:20;;;;;;;15.00;9.50;;;;;;;3.03;100.00;100983.38;5073905;28;20047;-53
2022/01/07 07:49:49;;;;;;;16.35;9.48;;;;;;;3.08;100.00;100984.09;5094156;28;20040;-52
2022/01/07 07:52:17;;;;;;;19.02;9.32;;;;;;;3.10;100.00;100977.06;5094154;28;20101;-52
2022/01/07 07:54:45;;;;;;;17.08;9.52;;;;;;;3.11;100.00;100981.38;5092941;28;20048;-51
2022/01/07 07:57:14;;;;;;;19.85;9.27;;;;;;;3.12;100.00;100977.03;5093079;28;20483;-54
2022/01/07 07:59:42;;;;;;;22.67;9.15;;;;;;;3.14;100.00;100978.69;5092587;28;20585;-54
2022/01/07 08:02:10;;;;;;;17.65;9.23;;;;;;;3.17;100.00;100970.78;5091625;28;20455;-54
2022/01/07 08:04:40;;;;;;;16.08;8.38;;;;;;;3.24;100.00;100980.97;5088571;28;20055;-53
2022/01/07 08:07:15;;;;;;;15.82;8.95;;;;;;;3.31;100.00;100982.47;5090828;28;20048;-54
2022/01/07 08:09:44;;;;;;;17.35;9.25;;;;;;;3.35;100.00;100984.94;5093010;28;20040;-54
2022/01/07 08:12:27;;;;;;;17.95;9.45;;;;;;;3.24;100.00;100968.81;5093699;28;20048;-54
2022/01/07 08:17:41;;;;;;;17.67;9.48;;;;;;;3.28;100.00;100954.81;5093431;28;20050;-53
2022/01/07 08:20:10;;;;;;;18.17;9.48;;;;;;;3.32;100.00;100947.78;5085658;28;20040;-53
2022/01/07 08:22:38;;;;;;;21.73;10.23;;;;;;;3.33;100.00;100959.88;5092451;28;20040;-54
2022/01/07 08:25:07;;;;;;;16.30;9.40;;;;;;;3.30;100.00;100958.25;5090911;28;20135;-54
2022/01/07 08:27:35;;;;;;;19.88;10.10;;;;;;;3.33;100.00;100970.28;5089559;28;20058;-54
2022/01/07 08:30:13;;;;;;;15.93;9.15;;;;;;;3.36;100.00;100970.19;5092147;28;20044;-53
2022/01/07 08:35:29;;;;;;;15.00;9.27;;;;;;;3.38;100.00;100971.84;5092154;28;20047;-54
2022/01/07 08:37:57;;;;;;;22.58;9.93;;;;;;;3.40;100.00;100963.13;5093326;28;20036;-55
2022/01/07 08:40:25;;;;;;;21.77;10.00;;;;;;;3.40;100.00;100969.19;5087148;28;20048;-56
2022/01/07 08:42:53;;;;;;;17.85;9.35;;;;;;;3.43;100.00;100971.66;5089653;28;20630;-54
2022/01/07 08:45:21;;;;;;;18.73;10.52;;;;;;;3.45;100.00;100962.09;5073031;28;20059;-54
2022/01/07 08:47:50;;;;;;;16.92;10.10;;;;;;;3.46;100.00;100963.75;5072349;28;20052;-54
2022/01/07 08:50:18;;;;;;;17.13;9.93;;;;;;;3.49;100.00;100965.41;5088340;28;20157;-53
2022/01/07 08:52:47;;;;;;;17.38;9.63;;;;;;;3.57;100.00;100966.00;5091899;28;20493;-53
2022/01/07 08:55:15;;;;;;;15.70;9.07;;;;;;;3.54;100.00;100969.59;5091223;28;20036;-53
2022/01/07 08:57:43;;;;;;;18.95;9.27;;;;;;;3.56;100.00;100972.13;5090395;28;20043;-53
2022/01/07 09:00:13;;;;;;;20.70;10.43;;;;;;;3.60;100.00;100972.84;5088791;28;20048;-54
2022/01/07 09:02:41;;;;;;;17.80;10.05;;;;;;;3.63;100.00;100971.00;5091258;28;20052;-52
2022/01/07 09:05:10;;;;;;;17.60;10.07;;;;;;;3.73;100.00;100971.53;5091267;28;20072;-52
2022/01/07 09:07:38;;;;;;;16.05;9.15;;;;;;;3.68;100.00;100963.91;5091672;28;20054;-54
2022/01/07 09:10:08;;;;;;;15.55;9.63;;;;;;;3.72;100.00;100964.63;5092791;28;20502;-52
2022/01/07 09:12:36;;;;;;;16.95;9.77;;;;;;;3.75;100.00;100966.28;5092743;28;20394;-53
2022/01/07 09:15:05;;;;;;;16.00;9.00;;;;;;;3.80;100.00;100969.56;5091547;28;20051;-51
2022/01/07 09:17:35;;;;;;;16.15;9.40;;;;;;;3.76;100.00;100967.97;5092634;28;20032;-54
2022/01/07 09:20:06;;;;;;;14.35;9.27;;;;;;;3.87;100.00;100964.13;5091774;28;20065;-53
2022/01/07 09:22:34;;;;;;;15.27;9.38;;;;;;;3.84;100.00;100960.75;5088737;28;20569;-53
2022/01/07 09:25:02;;;;;;;16.80;10.13;;;;;;;3.79;100.00;100966.13;5088376;28;20044;-53
2022/01/07 09:27:32;;;;;;;19.10;9.00;;;;;;;3.85;100.00;100960.69;5092424;28;20047;-54
2022/01/07 09:30:00;;;;;;;19.48;9.52;;;;;;;3.85;100.00;100962.47;5092279;28;20078;-53
2022/01/07 09:32:28;;;;;;;15.70;9.10;;;;;;;3.86;100.00;100958.97;5091910;28;20047;-56
2022/01/07 09:34:56;;;;;;;16.13;8.85;;;;;;;3.88;100.00;100957.16;5072473;28;20056;-51
2022/01/07 09:37:24;;;;;;;13.55;7.95;;;;;;;3.91;100.00;100956.19;5088035;28;20039;-58
2022/01/07 09:39:52;;;;;;;19.55;9.02;;;;;;;3.90;100.00;100965.75;5088940;28;20542;-55
2022/01/07 09:42:20;;;;;;;19.52;8.63;;;;;;;3.89;100.00;100961.44;5091737;28;20052;-56
2022/01/07 09:44:50;;;;;;;14.60;8.10;;;;;;;3.87;100.00;100952.84;5088589;28;20433;-57
2022/01/07 09:47:19;;;;;;;19.25;9.10;;;;;;;3.98;100.00;100968.06;5087730;28;20052;-57
2022/01/07 09:49:47;;;;;;;19.55;8.35;;;;;;;3.99;100.00;100965.41;5091886;28;20044;-59
2022/01/07 09:52:15;;;;;;;15.82;9.35;;;;;;;4.06;100.00;100958.22;5090905;28;20051;-58
2022/01/07 09:54:43;;;;;;;18.85;8.80;;;;;;;4.05;100.00;100964.38;5089966;28;20763;-57
2022/01/07 09:57:11;;;;;;;15.80;8.32;;;;;;;4.11;100.00;100966.72;5092041;28;20493;-57
2022/01/07 09:59:40;;;;;;;15.30;8.23;;;;;;;4.15;100.00;100968.31;5091579;28;20054;-56
2022/01/07 10:02:18;;;;;;;14.52;8.30;;;;;;;4.18;100.00;100956.94;5091957;28;20125;-56
2022/01/07 10:04:46;;;;;;;18.33;8.75;;;;;;;4.22;100.00;100955.94;5091813;28;20044;-49
2022/01/07 10:07:17;;;;;;;16.77;8.18;;;;;;;4.25;100.00;100949.75;5091798;28;20127;-52
2022/01/07 10:10:01;;;;;;;11.25;7.70;;;;;;;4.21;100.00;100951.63;5091889;28;20445;-57
2022/01/07 10:12:30;;;;;;;15.43;7.72;;;;;;;4.27;100.00;100948.81;5091650;28;20059;-57
2022/01/07 10:15:11;;;;;;;17.95;7.93;;;;;;;4.33;100.00;100947.72;5092014;28;20048;-57
2022/01/07 10:17:41;;;;;;;14.60;8.80;;;;;;;4.36;100.00;100945.00;5091848;28;20044;-57
2022/01/07 10:20:15;;;;;;;24.13;9.63;;;;;;;4.37;100.00;100944.09;5091958;28;20048;-57
2022/01/07 10:22:52;;;;;;;17.80;8.32;;;;;;;4.43;100.00;100938.66;5091323;28;20063;-56
2022/01/07 10:25:23;;;;;;;18.63;8.60;;;;;;;4.48;100.00;100928.91;5091412;28;20127;-57
2022/01/07 10:27:52;;;;;;;13.70;8.35;;;;;;;4.54;100.00;100931.28;5091337;28;20047;-56
2022/01/07 10:30:26;;;;;;;15.65;7.72;;;;;;;4.62;100.00;100933.59;5091188;28;20102;-55
2022/01/07 10:32:56;;;;;;;18.90;8.30;;;;;;;4.62;100.00;100915.38;5091357;28;20051;-57
2022/01/07 10:35:26;;;;;;;15.27;8.32;;;;;;;4.64;100.00;100929.16;5091820;28;20044;-58
2022/01/07 10:37:56;;;;;;;15.18;8.27;;;;;;;4.70;100.00;100923.72;5091677;28;20120;-57
2022/01/07 10:40:32;;;;;;;15.27;8.40;;;;;;;4.70;100.00;100925.47;5091704;28;20040;-56
2022/01/07 10:43:15;;;;;;;15.07;8.18;;;;;;;4.77;100.00;100915.66;5091487;28;20044;-57
2022/01/07 10:45:45;;;;;;;17.42;8.98;;;;;;;4.76;100.00;100919.16;5091821;28;20489;-57
2022/01/07 10:48:16;;;;;;;21.52;9.05;;;;;;;4.72;100.00;100918.47;5091600;28;20482;-58
2022/01/07 10:50:46;;;;;;;18.38;8.23;;;;;;;4.71;100.00;100916.75;5091664;28;20044;-55
2022/01/07 10:53:17;;;;;;;16.63;8.40;;;;;;;4.74;100.00;100911.41;5091539;28;20040;-56
2022/01/07 10:56:03;;;;;;;14.85;7.68;;;;;;;4.76;100.00;100914.81;5091573;28;20057;-56
2022/01/07 10:58:49;;;;;;;20.95;7.97;;;;;;;4.90;100.00;100906.44;5091556;28;20102;-56
2022/01/07 11:01:27;;;;;;;14.27;7.40;;;;;;;4.96;100.00;100907.94;5091595;28;20360;-57
2022/01/07 11:03:58;;;;;;;19.35;6.90;;;;;;;4.89;100.00;100900.41;5091457;28;20040;-57
2022/01/07 11:06:29;;;;;;;12.95;7.20;;;;;;;5.00;100.00;100901.69;5094838;28;20054;-57
2022/01/07 11:09:00;;;;;;;16.13;6.28;;;;;;;5.05;100.00;100899.75;5094980;28;20044;-57
2022/01/07 11:11:30;;;;;;;17.92;7.15;;;;;;;5.13;100.00;100896.84;5094994;28;20040;-57
2022/01/07 11:14:07;;;;;;;14.55;7.15;;;;;;;5.08;100.00;100899.63;5094867;28;20056;-57
2022/01/07 11:16:37;;;;;;;12.27;5.45;;;;;;;5.18;100.00;100906.16;5094909;28;20382;-57
2022/01/07 11:19:09;;;;;;;13.13;5.97;;;;;;;5.15;100.00;100906.28;5094831;28;20514;-56
2022/01/07 11:21:37;;;;;;;15.70;6.15;;;;;;;5.26;100.00;100895.41;5076593;28;20066;-55
2022/01/07 11:24:34;;;;;;;11.05;5.72;;;;;;;5.19;100.00;100901.78;5094705;28;20427;-55
2022/01/07 11:27:03;;;;;;;11.05;6.47;;;;;;;5.25;100.00;100907.59;5094647;28;20398;-57
2022/01/07 11:29:31;;;;;;;15.02;5.97;;;;;;;5.22;100.00;100897.31;5094612;28;20044;-57
2022/01/07 11:32:34;;;;;;;10.50;5.65;;;;;;;5.29;100.00;100910.94;5094698;28;20444;-56
2022/01/07 11:35:47;;;;;;;14.63;5.82;;;;;;;5.36;100.00;100909.75;5094746;28;20051;-57
2022/01/07 11:38:36;;;;;;;13.10;5.45;;;;;;;5.36;100.00;100904.53;5094219;28;20036;-56